CheckWX is a tool to help pilots better visualize weather data.  It is not intended as a substitute for an official pre-flight weather briefing.

13:16:05 UTC

LATI TAF
Tirana International Mother Teresa Airport
Tirana, Albania
TAF LATI 201100Z 2012/2112 34010KT CAVOK TX34/2112Z TN18/2104Z BECMG 2017/2019 VRB03KT

Aug-20@
12:00 UTC

Aug-20 @ 12:00 UTC

Aug-20@
17:00 UTC

Aug-20 @ 17:00 UTC

TAF LATI 201100Z 2012/2112 34010KT CAVOK TX34/2112Z TN18/2104Z
Wind
  • 340° at 10 KTS
Cloud Levels
  • No significant clouds

Aug-20@
17:00 UTC

Aug-20 @ 17:00 UTC

Aug-21@
12:00 UTC

Aug-21 @ 12:00 UTC

BECMG 2017/2019 VRB03KT

Becoming

Becoming Conditions expected by Tue, Aug 20, 2019 @ 19:00 UTC

Wind
  • Variable at 3 KTS
Cloud Levels
  • No significant clouds